Time;durP1;ratioP1;P1;durP2;ratioP2;P2;SDS_P1;SDS_P2;PMS_P1;PMS_P2;Temp;Humidity;BMP_temperature;BMP_pressure;BME280_temperature;BME280_humidity;BME280_pressure;Samples;Min_cycle;Max_cycle;Signal;HPM_P1;HPM_P2
2023/04/15 00:02:17;;;;;;;10.60;3.57;;;;;;;;;;6184630;28;20293;-73
2023/04/15 00:05:22;;;;;;;11.40;4.00;;;;;;;;;;6183035;28;20302;-73
2023/04/15 00:08:29;;;;;;;10.10;3.53;;;;;;;;;;6183761;28;20304;-73
2023/04/15 00:11:34;;;;;;;8.23;3.60;;;;;;;;;;6180377;28;20307;-73
2023/04/15 00:14:40;;;;;;;11.07;4.13;;;;;;;;;;6158921;28;20298;-71
2023/04/15 00:17:45;;;;;;;5.80;3.60;;;;;;;;;;6240352;28;20318;-72
2023/04/15 00:20:51;;;;;;;6.93;3.80;;;;;;;;;;6159966;28;20272;-73
2023/04/15 00:23:58;;;;;;;11.73;4.10;;;;;;;;;;6159034;28;20305;-73
2023/04/15 00:27:03;;;;;;;12.40;3.50;;;;;;;;;;6159634;28;20301;-72
2023/04/15 00:30:09;;;;;;;7.80;3.47;;;;;;;;;;6159243;28;20303;-72
2023/04/15 00:33:15;;;;;;;7.43;3.33;;;;;;;;;;6159461;28;20312;-72
2023/04/15 00:36:20;;;;;;;10.10;3.27;;;;;;;;;;6241252;28;20291;-72
2023/04/15 00:39:28;;;;;;;8.60;3.67;;;;;;;;;;6224178;28;20305;-71
2023/04/15 00:42:34;;;;;;;4.07;3.40;;;;;;;;;;6224093;28;20306;-72
2023/04/15 00:45:40;;;;;;;6.90;3.17;;;;;;;;;;6240168;28;20306;-72
2023/04/15 00:48:48;;;;;;;8.90;3.23;;;;;;;;;;6239225;28;20560;-71
2023/04/15 00:51:53;;;;;;;6.17;3.47;;;;;;;;;;6159369;28;20303;-71
2023/04/15 00:55:00;;;;;;;11.90;3.60;;;;;;;;;;6159074;28;20255;-72
2023/04/15 00:58:05;;;;;;;7.90;3.50;;;;;;;;;;6158900;28;20293;-72
2023/04/15 01:01:11;;;;;;;5.30;3.73;;;;;;;;;;6159366;28;20302;-72
2023/04/15 01:04:17;;;;;;;7.33;3.70;;;;;;;;;;6280221;22;20587;-77
2023/04/15 01:07:22;;;;;;;7.60;4.00;;;;;;;;;;6249942;28;20572;-76
2023/04/15 01:10:29;;;;;;;5.77;3.40;;;;;;;;;;6257560;28;20589;-76
2023/04/15 01:13:35;;;;;;;8.50;3.60;;;;;;;;;;6256384;28;20304;-75
2023/04/15 01:16:40;;;;;;;10.40;4.20;;;;;;;;;;6261942;28;20290;-75
2023/04/15 01:19:46;;;;;;;9.10;4.03;;;;;;;;;;6262185;28;20299;-75
2023/04/15 01:22:51;;;;;;;6.40;3.60;;;;;;;;;;6262886;28;20292;-77
2023/04/15 01:25:59;;;;;;;6.77;3.97;;;;;;;;;;6263123;28;20297;-76
2023/04/15 01:29:04;;;;;;;5.50;3.77;;;;;;;;;;6261872;28;20312;-75
2023/04/15 01:32:11;;;;;;;7.43;3.57;;;;;;;;;;6262026;28;20296;-76
2023/04/15 01:35:16;;;;;;;11.23;3.87;;;;;;;;;;6261216;28;20297;-76
2023/04/15 01:38:21;;;;;;;5.33;3.30;;;;;;;;;;6261988;28;20292;-76
2023/04/15 01:41:29;;;;;;;9.80;3.83;;;;;;;;;;6262116;28;20300;-75
2023/04/15 01:44:34;;;;;;;6.80;3.37;;;;;;;;;;6262570;28;20317;-76
2023/04/15 01:47:40;;;;;;;12.17;4.07;;;;;;;;;;6260237;28;20415;-75
2023/04/15 01:50:47;;;;;;;8.53;3.90;;;;;;;;;;6261225;28;20295;-75
2023/04/15 01:53:52;;;;;;;4.30;3.10;;;;;;;;;;6260937;28;20382;-76
2023/04/15 01:56:58;;;;;;;7.70;3.30;;;;;;;;;;6262503;28;20272;-76
2023/04/15 02:00:06;;;;;;;3.80;3.10;;;;;;;;;;6260169;28;20296;-76
2023/04/15 02:03:17;;;;;;;5.10;3.63;;;;;;;;;;6261669;28;20302;-76
2023/04/15 02:06:23;;;;;;;6.57;3.23;;;;;;;;;;6260987;28;20358;-75
2023/04/15 02:09:28;;;;;;;9.23;3.63;;;;;;;;;;6261901;28;20487;-77
2023/04/15 02:12:35;;;;;;;8.23;3.47;;;;;;;;;;6261698;28;20420;-76
2023/04/15 02:15:40;;;;;;;5.77;3.20;;;;;;;;;;6244427;28;20311;-75
2023/04/15 02:18:46;;;;;;;5.50;3.90;;;;;;;;;;6260506;28;20292;-76
2023/04/15 02:21:51;;;;;;;8.10;3.30;;;;;;;;;;6262450;28;20293;-76
2023/04/15 02:24:56;;;;;;;5.83;3.40;;;;;;;;;;6260483;28;20292;-75
2023/04/15 02:28:03;;;;;;;8.97;4.07;;;;;;;;;;6259395;28;20388;-75
2023/04/15 02:31:08;;;;;;;8.60;3.70;;;;;;;;;;6262056;28;20300;-75
2023/04/15 02:34:14;;;;;;;6.90;3.50;;;;;;;;;;6261527;28;20347;-75
2023/04/15 02:37:23;;;;;;;3.87;2.97;;;;;;;;;;6260242;28;20301;-75
2023/04/15 02:40:28;;;;;;;7.80;3.87;;;;;;;;;;6261253;28;20306;-76
2023/04/15 02:43:35;;;;;;;10.70;3.37;;;;;;;;;;6243407;28;20289;-76
2023/04/15 02:46:41;;;;;;;7.20;3.17;;;;;;;;;;6261708;28;20306;-76
2023/04/15 02:49:46;;;;;;;5.73;3.80;;;;;;;;;;6259366;28;20300;-75
2023/04/15 02:52:52;;;;;;;7.03;3.40;;;;;;;;;;6243438;28;20301;-76
2023/04/15 02:55:58;;;;;;;6.87;3.53;;;;;;;;;;6260099;28;20453;-76
2023/04/15 02:59:04;;;;;;;5.10;3.23;;;;;;;;;;6260009;28;20296;-75
2023/04/15 03:02:10;;;;;;;6.77;3.60;;;;;;;;;;6256832;28;20309;-76
2023/04/15 03:05:15;;;;;;;12.30;3.67;;;;;;;;;;6246806;28;20294;-75
2023/04/15 03:08:26;;;;;;;8.23;3.30;;;;;;;;;;6281505;28;20301;-75
2023/04/15 03:11:35;;;;;;;7.43;3.33;;;;;;;;;;6269292;28;20301;-76
2023/04/15 03:14:42;;;;;;;6.30;3.60;;;;;;;;;;6258371;28;20312;-74
2023/04/15 03:17:48;;;;;;;8.33;3.50;;;;;;;;;;6260053;28;20301;-75
2023/04/15 03:20:54;;;;;;;7.43;3.70;;;;;;;;;;6251625;28;20271;-76
2023/04/15 03:24:01;;;;;;;5.57;3.43;;;;;;;;;;6251029;28;20301;-76
2023/04/15 03:27:07;;;;;;;4.57;3.17;;;;;;;;;;6251308;28;20298;-76
2023/04/15 03:30:14;;;;;;;4.37;3.47;;;;;;;;;;6250744;28;20306;-78
2023/04/15 03:33:20;;;;;;;11.03;3.97;;;;;;;;;;6250175;28;20299;-76
2023/04/15 03:36:26;;;;;;;7.90;3.57;;;;;;;;;;6249788;28;20293;-76
2023/04/15 03:39:31;;;;;;;5.83;3.30;;;;;;;;;;6284385;28;20484;-75
2023/04/15 03:42:36;;;;;;;4.80;3.50;;;;;;;;;;6284908;28;20304;-75
2023/04/15 03:45:43;;;;;;;6.73;3.47;;;;;;;;;;6282967;28;20288;-76
2023/04/15 03:48:48;;;;;;;8.07;2.93;;;;;;;;;;6284431;28;20313;-76
2023/04/15 03:51:53;;;;;;;8.10;3.37;;;;;;;;;;6284805;28;20297;-75
2023/04/15 03:54:58;;;;;;;4.70;3.10;;;;;;;;;;6284367;28;20361;-76
2023/04/15 03:58:03;;;;;;;11.67;3.47;;;;;;;;;;6284148;28;20309;-75
2023/04/15 04:01:11;;;;;;;5.60;3.93;;;;;;;;;;6284843;28;20304;-76
2023/04/15 04:04:17;;;;;;;5.67;3.53;;;;;;;;;;6283752;28;20298;-77
2023/04/15 04:07:24;;;;;;;4.17;2.77;;;;;;;;;;6285009;28;20293;-75
2023/04/15 04:10:29;;;;;;;5.27;3.37;;;;;;;;;;6279149;28;20301;-74
2023/04/15 04:13:35;;;;;;;5.43;3.40;;;;;;;;;;6259422;28;20301;-75
2023/04/15 04:16:41;;;;;;;3.63;3.40;;;;;;;;;;6259009;28;20294;-75
2023/04/15 04:19:46;;;;;;;6.33;3.33;;;;;;;;;;6259799;28;20297;-75
2023/04/15 04:22:51;;;;;;;7.57;3.30;;;;;;;;;;6259400;28;20304;-76
2023/04/15 04:25:56;;;;;;;7.10;3.20;;;;;;;;;;6259736;28;20299;-77
2023/04/15 04:29:02;;;;;;;5.30;3.30;;;;;;;;;;6259561;28;20303;-75
2023/04/15 04:32:09;;;;;;;4.30;3.57;;;;;;;;;;6259634;28;20294;-75
2023/04/15 04:35:15;;;;;;;4.07;3.27;;;;;;;;;;6259180;28;20298;-76
2023/04/15 04:38:20;;;;;;;9.20;3.47;;;;;;;;;;6258876;28;20321;-75
2023/04/15 04:41:25;;;;;;;5.73;3.17;;;;;;;;;;6259831;28;20293;-76
2023/04/15 04:44:30;;;;;;;5.80;3.60;;;;;;;;;;6258890;28;20300;-76
2023/04/15 04:47:37;;;;;;;4.77;3.50;;;;;;;;;;6259943;28;20292;-75
2023/04/15 04:50:42;;;;;;;16.47;3.70;;;;;;;;;;6259709;28;20277;-75
2023/04/15 04:53:47;;;;;;;7.37;3.40;;;;;;;;;;6264189;28;20363;-76
2023/04/15 04:56:52;;;;;;;9.07;3.17;;;;;;;;;;6264661;28;20278;-75
2023/04/15 04:59:57;;;;;;;4.53;3.60;;;;;;;;;;6263616;28;20315;-75
2023/04/15 05:03:04;;;;;;;3.37;3.07;;;;;;;;;;6263193;28;20317;-75
2023/04/15 05:06:10;;;;;;;4.60;3.50;;;;;;;;;;6264024;28;20297;-76
2023/04/15 05:09:15;;;;;;;7.00;3.77;;;;;;;;;;6263583;28;20291;-76
2023/04/15 05:12:20;;;;;;;7.13;3.37;;;;;;;;;;6260895;28;20296;-76
2023/04/15 05:15:25;;;;;;;6.10;3.10;;;;;;;;;;6263598;28;20369;-76
2023/04/15 05:18:32;;;;;;;5.90;3.57;;;;;;;;;;6263105;28;20303;-76
2023/04/15 05:21:37;;;;;;;7.77;3.20;;;;;;;;;;6264127;28;20538;-76
2023/04/15 05:24:43;;;;;;;11.00;3.40;;;;;;;;;;6263086;28;20298;-76
2023/04/15 05:27:48;;;;;;;4.67;3.30;;;;;;;;;;6261827;28;20296;-75
2023/04/15 05:30:53;;;;;;;6.60;3.50;;;;;;;;;;6288689;28;20296;-76
2023/04/15 05:34:00;;;;;;;4.97;4.10;;;;;;;;;;6286257;28;20609;-75
2023/04/15 05:37:05;;;;;;;9.40;3.50;;;;;;;;;;6288212;28;20296;-75
2023/04/15 05:40:13;;;;;;;4.43;3.13;;;;;;;;;;6287276;28;20297;-75
2023/04/15 05:43:18;;;;;;;5.20;3.17;;;;;;;;;;6287459;28;20299;-76
2023/04/15 05:46:23;;;;;;;4.10;3.27;;;;;;;;;;6287707;28;20481;-76
2023/04/15 05:49:30;;;;;;;6.60;3.00;;;;;;;;;;6287499;28;20292;-75
2023/04/15 05:52:35;;;;;;;5.03;3.10;;;;;;;;;;6288051;28;20626;-77
2023/04/15 05:55:41;;;;;;;4.10;3.50;;;;;;;;;;6287339;28;20472;-75
2023/04/15 05:58:46;;;;;;;5.57;3.17;;;;;;;;;;6286996;28;20301;-75
2023/04/15 06:01:52;;;;;;;3.70;3.10;;;;;;;;;;6286393;28;20301;-76
2023/04/15 06:04:59;;;;;;;5.57;3.30;;;;;;;;;;6286819;28;20597;-76
2023/04/15 06:08:05;;;;;;;5.30;3.40;;;;;;;;;;6287010;28;20296;-76
2023/04/15 06:11:10;;;;;;;4.00;3.53;;;;;;;;;;6282952;28;20462;-75
2023/04/15 06:14:15;;;;;;;5.20;3.00;;;;;;;;;;6286550;28;20306;-76
2023/04/15 06:17:20;;;;;;;5.10;3.10;;;;;;;;;;6287319;28;20297;-76
2023/04/15 06:20:27;;;;;;;3.07;2.80;;;;;;;;;;6286799;28;20299;-76
2023/04/15 06:23:35;;;;;;;6.10;3.33;;;;;;;;;;6286455;28;20310;-76
2023/04/15 06:26:40;;;;;;;4.93;3.20;;;;;;;;;;6285335;28;20274;-76
2023/04/15 06:29:45;;;;;;;13.23;5.23;;;;;;;;;;6286005;28;20299;-75
2023/04/15 06:32:50;;;;;;;6.13;4.27;;;;;;;;;;6286295;28;20271;-75
2023/04/15 06:35:57;;;;;;;3.57;2.93;;;;;;;;;;6286392;28;20267;-76
2023/04/15 06:39:02;;;;;;;3.80;3.07;;;;;;;;;;6286314;28;20299;-75
2023/04/15 06:42:11;;;;;;;5.87;3.30;;;;;;;;;;6286568;28;20571;-74
2023/04/15 06:45:16;;;;;;;4.93;3.20;;;;;;;;;;6286139;28;20298;-76
2023/04/15 06:48:21;;;;;;;3.20;2.93;;;;;;;;;;6285979;28;20319;-75
2023/04/15 06:51:28;;;;;;;5.25;2.92;;;;;;;;;;6286631;28;20294;-76
2023/04/15 06:54:33;;;;;;;5.25;3.08;;;;;;;;;;6285549;28;20294;-75
2023/04/15 06:57:38;;;;;;;3.88;3.33;;;;;;;;;;6285443;28;20290;-74
2023/04/15 07:00:43;;;;;;;5.60;2.72;;;;;;;;;;6285325;28;20583;-76
2023/04/15 07:03:49;;;;;;;6.90;3.40;;;;;;;;;;6267568;28;20298;-76
2023/04/15 07:06:55;;;;;;;5.18;3.45;;;;;;;;;;6243416;28;20292;-76
2023/04/15 07:10:02;;;;;;;3.63;3.10;;;;;;;;;;6255639;28;20588;-76
2023/04/15 07:13:07;;;;;;;4.63;3.10;;;;;;;;;;6254200;28;20587;-76
2023/04/15 07:16:14;;;;;;;6.77;3.10;;;;;;;;;;6238772;28;20587;-76
2023/04/15 07:19:19;;;;;;;3.28;3.05;;;;;;;;;;6260392;28;20296;-76
2023/04/15 07:22:26;;;;;;;3.90;2.70;;;;;;;;;;6260554;28;20388;-76
2023/04/15 07:25:31;;;;;;;7.25;3.20;;;;;;;;;;6260429;28;20299;-76
2023/04/15 07:28:36;;;;;;;5.00;2.90;;;;;;;;;;6260429;28;20299;-78
2023/04/15 07:31:42;;;;;;;2.83;2.70;;;;;;;;;;6261052;28;20292;-75
2023/04/15 07:34:47;;;;;;;5.25;3.17;;;;;;;;;;6260374;28;20606;-76
2023/04/15 07:37:53;;;;;;;4.63;2.67;;;;;;;;;;6259925;28;20476;-78
2023/04/15 07:40:59;;;;;;;5.85;3.13;;;;;;;;;;6260955;28;20291;-76
2023/04/15 07:44:04;;;;;;;3.20;3.00;;;;;;;;;;6259720;28;20303;-75
2023/04/15 07:47:10;;;;;;;3.35;2.95;;;;;;;;;;6243221;28;20338;-76
2023/04/15 07:50:16;;;;;;;3.67;3.00;;;;;;;;;;6258379;28;20291;-77
2023/04/15 07:53:22;;;;;;;4.72;3.13;;;;;;;;;;6260203;28;20497;-76
2023/04/15 07:56:28;;;;;;;4.68;3.22;;;;;;;;;;6241850;28;20580;-76
2023/04/15 07:59:33;;;;;;;5.10;3.40;;;;;;;;;;6235473;28;20293;-76
2023/04/15 08:02:38;;;;;;;6.22;3.42;;;;;;;;;;6234629;28;20312;-74
2023/04/15 08:05:46;;;;;;;3.67;3.03;;;;;;;;;;6234963;28;20481;-75
2023/04/15 08:08:53;;;;;;;4.68;2.50;;;;;;;;;;6235336;28;20292;-76
2023/04/15 08:11:58;;;;;;;6.27;3.37;;;;;;;;;;6242710;28;20312;-74
2023/04/15 08:15:03;;;;;;;3.40;2.88;;;;;;;;;;6259311;28;20288;-75
2023/04/15 08:18:12;;;;;;;3.72;3.42;;;;;;;;;;6259343;28;20291;-76
2023/04/15 08:21:18;;;;;;;3.50;3.15;;;;;;;;;;6258541;28;20626;-75
2023/04/15 08:24:26;;;;;;;3.63;2.90;;;;;;;;;;6258930;28;20296;-75
2023/04/15 08:27:31;;;;;;;3.28;2.92;;;;;;;;;;6264313;28;20292;-78
2023/04/15 08:30:36;;;;;;;6.43;3.38;;;;;;;;;;6264286;28;20304;-76
2023/04/15 08:33:41;;;;;;;8.23;5.28;;;;;;;;;;6264057;28;20308;-76
2023/04/15 08:36:46;;;;;;;6.78;3.40;;;;;;;;;;6264776;28;20294;-78
2023/04/15 08:39:53;;;;;;;4.38;3.22;;;;;;;;;;6263760;28;20295;-76
2023/04/15 08:42:58;;;;;;;4.88;3.42;;;;;;;;;;6263777;28;20299;-76
2023/04/15 08:46:05;;;;;;;8.40;4.85;;;;;;;;;;6264407;28;20429;-75
2023/04/15 08:49:12;;;;;;;8.23;5.43;;;;;;;;;;6263961;28;20292;-76
2023/04/15 08:52:17;;;;;;;5.40;3.63;;;;;;;;;;6263760;28;20291;-75
2023/04/15 08:55:24;;;;;;;5.60;3.40;;;;;;;;;;6263947;28;20303;-75
2023/04/15 08:58:30;;;;;;;5.85;2.92;;;;;;;;;;6264077;28;20299;-76
2023/04/15 09:01:36;;;;;;;7.40;3.30;;;;;;;;;;6263887;28;20290;-75
2023/04/15 09:04:41;;;;;;;5.40;3.15;;;;;;;;;;6262208;28;20300;-77
2023/04/15 09:07:46;;;;;;;8.25;2.80;;;;;;;;;;6263165;28;20640;-75
2023/04/15 09:10:53;;;;;;;2.72;2.60;;;;;;;;;;6264859;28;20292;-76
2023/04/15 09:13:59;;;;;;;5.95;3.20;;;;;;;;;;6263995;28;20299;-77
2023/04/15 09:17:04;;;;;;;4.30;3.40;;;;;;;;;;6264534;28;20296;-77
2023/04/15 09:20:12;;;;;;;3.95;3.08;;;;;;;;;;6262952;28;20487;-76
2023/04/15 09:23:17;;;;;;;5.22;3.13;;;;;;;;;;6263061;28;20291;-76
2023/04/15 09:26:33;;;;;;;3.03;2.92;;;;;;;;;;6263780;28;20595;-75
2023/04/15 09:29:38;;;;;;;5.07;2.90;;;;;;;;;;6262810;28;20583;-75
2023/04/15 09:32:50;;;;;;;3.40;3.10;;;;;;;;;;6262803;28;20268;-76
2023/04/15 09:36:00;;;;;;;3.50;3.20;;;;;;;;;;6263286;28;20288;-76
2023/04/15 09:39:06;;;;;;;5.75;2.92;;;;;;;;;;6262437;28;20291;-76
2023/04/15 09:42:16;;;;;;;5.18;3.47;;;;;;;;;;6262779;28;20576;-76
2023/04/15 09:45:22;;;;;;;5.05;3.35;;;;;;;;;;6262694;28;20296;-76
2023/04/15 09:48:31;;;;;;;3.88;3.58;;;;;;;;;;6262183;28;20289;-76
2023/04/15 09:51:36;;;;;;;8.90;3.17;;;;;;;;;;6262871;28;20303;-76
2023/04/15 09:54:41;;;;;;;7.60;3.88;;;;;;;;;;6262016;28;20291;-75
2023/04/15 09:57:48;;;;;;;6.82;3.25;;;;;;;;;;6261831;28;20548;-74
2023/04/15 10:00:55;;;;;;;6.20;3.55;;;;;;;;;;6262534;28;20575;-74
2023/04/15 10:04:04;;;;;;;4.35;3.83;;;;;;;;;;6280007;28;20310;-74
2023/04/15 10:07:10;;;;;;;8.13;3.58;;;;;;;;;;6287501;28;20302;-75
2023/04/15 10:10:16;;;;;;;6.82;3.63;;;;;;;;;;6277125;28;20442;-75
2023/04/15 10:13:24;;;;;;;4.22;3.15;;;;;;;;;;6257664;28;20295;-77
2023/04/15 10:16:30;;;;;;;8.20;3.50;;;;;;;;;;6262218;28;20468;-77
2023/04/15 10:19:37;;;;;;;4.32;3.88;;;;;;;;;;6261755;28;20291;-74
2023/04/15 10:22:43;;;;;;;9.98;3.70;;;;;;;;;;6261445;28;20291;-75
2023/04/15 10:25:49;;;;;;;6.05;3.63;;;;;;;;;;6262073;28;20296;-75
2023/04/15 10:28:56;;;;;;;4.32;3.83;;;;;;;;;;6261920;28;20296;-75
2023/04/15 10:32:04;;;;;;;4.18;3.53;;;;;;;;;;6262114;28;20304;-73
2023/04/15 10:35:10;;;;;;;5.20;3.88;;;;;;;;;;6261313;28;20296;-76
2023/04/15 10:38:35;;;;;;;6.43;4.20;;;;;;;;;;6261359;28;20291;-77
2023/04/15 10:41:40;;;;;;;4.53;3.28;;;;;;;;;;6259445;28;20292;-76
2023/04/15 10:45:07;;;;;;;6.28;3.45;;;;;;;;;;6259996;28;20421;-76
2023/04/15 10:48:17;;;;;;;3.13;2.92;;;;;;;;;;6242528;28;20300;-76
2023/04/15 10:51:30;;;;;;;4.18;3.67;;;;;;;;;;6261324;28;20572;-76
2023/04/15 10:54:37;;;;;;;5.80;3.63;;;;;;;;;;6260660;28;20455;-75
2023/04/15 10:57:44;;;;;;;5.88;3.22;;;;;;;;;;6260635;28;20490;-75
2023/04/15 11:00:53;;;;;;;6.50;3.67;;;;;;;;;;6261082;28;20295;-74
2023/04/15 11:03:58;;;;;;;4.03;3.42;;;;;;;;;;6260155;28;20297;-76
2023/04/15 11:07:07;;;;;;;6.13;3.67;;;;;;;;;;6261166;28;20308;-76
2023/04/15 11:10:52;;;;;;;3.50;3.20;;;;;;;;;;6257451;28;20303;-76
2023/04/15 11:13:58;;;;;;;5.05;3.50;;;;;;;;;;6260337;28;20327;-75
2023/04/15 11:17:05;;;;;;;7.15;3.20;;;;;;;;;;6259638;28;20293;-75
2023/04/15 11:20:16;;;;;;;8.38;3.30;;;;;;;;;;6260543;28;20300;-76
2023/04/15 11:23:29;;;;;;;4.63;3.38;;;;;;;;;;6260539;28;20295;-76
2023/04/15 11:26:34;;;;;;;3.47;3.17;;;;;;;;;;6243068;28;20300;-78
2023/04/15 11:29:39;;;;;;;3.38;3.17;;;;;;;;;;6259496;28;20295;-78
2023/04/15 11:32:46;;;;;;;7.68;4.03;;;;;;;;;;6259713;28;20276;-77
2023/04/15 11:35:51;;;;;;;5.43;3.80;;;;;;;;;;6260943;28;20268;-77
2023/04/15 11:38:58;;;;;;;3.70;3.38;;;;;;;;;;6260192;28;20299;-76
2023/04/15 11:42:04;;;;;;;3.70;3.45;;;;;;;;;;6260142;28;20469;-76
2023/04/15 11:45:10;;;;;;;4.00;3.55;;;;;;;;;;6260099;28;20304;-76
2023/04/15 11:48:16;;;;;;;4.10;3.70;;;;;;;;;;6259846;28;20304;-76
2023/04/15 11:51:22;;;;;;;3.88;3.30;;;;;;;;;;6279797;28;20286;-75
2023/04/15 11:54:27;;;;;;;4.50;3.75;;;;;;;;;;6284343;28;20291;-76
2023/04/15 11:57:32;;;;;;;4.63;3.90;;;;;;;;;;6284771;28;20299;-76
2023/04/15 12:00:40;;;;;;;4.97;4.07;;;;;;;;;;6284303;28;20287;-76
2023/04/15 12:03:48;;;;;;;5.22;3.85;;;;;;;;;;6284358;28;20295;-77
2023/04/15 12:06:54;;;;;;;8.90;5.45;;;;;;;;;;6285457;28;20303;-76
2023/04/15 12:10:00;;;;;;;4.82;3.50;;;;;;;;;;6283058;28;20287;-75
2023/04/15 12:13:08;;;;;;;8.57;4.43;;;;;;;;;;6277951;28;20393;-77
2023/04/15 12:16:14;;;;;;;5.03;3.30;;;;;;;;;;6284812;28;20455;-77
2023/04/15 12:19:25;;;;;;;5.20;3.78;;;;;;;;;;6278370;28;20294;-77
2023/04/15 12:22:30;;;;;;;6.68;4.07;;;;;;;;;;6284181;28;20578;-77
2023/04/15 12:25:36;;;;;;;5.88;3.40;;;;;;;;;;6284333;28;20299;-77
2023/04/15 12:28:41;;;;;;;3.50;3.17;;;;;;;;;;6283915;28;20412;-76
2023/04/15 12:31:51;;;;;;;6.50;4.10;;;;;;;;;;6284155;28;20291;-76
2023/04/15 12:34:58;;;;;;;3.90;3.67;;;;;;;;;;6283977;28;20283;-77
2023/04/15 12:38:03;;;;;;;6.78;3.78;;;;;;;;;;6283614;28;20298;-76
2023/04/15 12:41:09;;;;;;;6.03;4.03;;;;;;;;;;6284395;28;20287;-77
2023/04/15 12:44:14;;;;;;;5.03;4.63;;;;;;;;;;6283735;28;20302;-75
2023/04/15 12:47:20;;;;;;;5.45;4.65;;;;;;;;;;6284038;28;20290;-76
2023/04/15 12:50:26;;;;;;;6.35;3.67;;;;;;;;;;6283410;28;20302;-76
2023/04/15 12:53:32;;;;;;;5.75;3.50;;;;;;;;;;6283288;28;20299;-77
2023/04/15 12:56:37;;;;;;;5.95;3.80;;;;;;;;;;6284343;28;20291;-77
2023/04/15 12:59:42;;;;;;;6.47;3.70;;;;;;;;;;6282359;28;20294;-76
2023/04/15 13:02:47;;;;;;;5.10;3.58;;;;;;;;;;6264709;28;20295;-76
2023/04/15 13:05:56;;;;;;;3.60;3.33;;;;;;;;;;6250364;28;20277;-75
2023/04/15 13:09:02;;;;;;;6.63;3.60;;;;;;;;;;6258741;28;20560;-75
2023/04/15 13:12:12;;;;;;;4.45;3.90;;;;;;;;;;6260860;28;20291;-76
2023/04/15 13:15:19;;;;;;;5.22;3.97;;;;;;;;;;6263138;28;20295;-77
2023/04/15 13:18:24;;;;;;;9.07;3.88;;;;;;;;;;6263163;28;20596;-77
2023/04/15 13:21:33;;;;;;;4.93;3.72;;;;;;;;;;6264154;28;20466;-76
2023/04/15 13:24:40;;;;;;;5.88;3.78;;;;;;;;;;6262990;28;20295;-78
2023/04/15 13:27:45;;;;;;;9.02;3.53;;;;;;;;;;6262283;28;20300;-76
2023/04/15 13:30:51;;;;;;;3.92;3.47;;;;;;;;;;6254787;28;20296;-77
2023/04/15 13:33:56;;;;;;;3.50;3.30;;;;;;;;;;6262673;28;20299;-76
2023/04/15 13:37:08;;;;;;;5.97;3.22;;;;;;;;;;6263415;28;20360;-77
2023/04/15 13:40:13;;;;;;;3.38;3.15;;;;;;;;;;6262582;28;20603;-76
2023/04/15 13:43:20;;;;;;;3.75;3.00;;;;;;;;;;6262408;28;20300;-76
2023/04/15 13:46:26;;;;;;;4.78;3.38;;;;;;;;;;6261915;28;20291;-76
2023/04/15 13:49:31;;;;;;;3.72;3.42;;;;;;;;;;6262684;28;20295;-76
2023/04/15 13:52:37;;;;;;;4.82;3.58;;;;;;;;;;6263315;28;20292;-75
2023/04/15 13:55:43;;;;;;;4.20;3.63;;;;;;;;;;6261958;28;20291;-76
2023/04/15 13:58:48;;;;;;;3.30;3.10;;;;;;;;;;6261314;28;20306;-76
2023/04/15 14:01:53;;;;;;;9.15;3.40;;;;;;;;;;6253551;28;20295;-76
2023/04/15 14:04:59;;;;;;;3.95;2.85;;;;;;;;;;6262921;28;20454;-76
2023/04/15 14:08:05;;;;;;;4.78;3.70;;;;;;;;;;6261968;28;20299;-77
2023/04/15 14:11:11;;;;;;;5.40;3.85;;;;;;;;;;6234336;28;20576;-76
2023/04/15 14:14:16;;;;;;;6.30;3.65;;;;;;;;;;6262159;28;20307;-76
2023/04/15 14:17:21;;;;;;;4.40;3.03;;;;;;;;;;6262225;28;20484;-77
2023/04/15 14:20:26;;;;;;;5.55;3.28;;;;;;;;;;6262082;28;20395;-75
2023/04/15 14:23:33;;;;;;;6.93;3.50;;;;;;;;;;6261010;28;20308;-76
2023/04/15 14:26:38;;;;;;;3.80;3.50;;;;;;;;;;6244091;28;20453;-76
2023/04/15 14:29:43;;;;;;;4.68;3.65;;;;;;;;;;6261930;28;20300;-75
2023/04/15 14:32:49;;;;;;;8.30;4.80;;;;;;;;;;6261632;28;20276;-77
2023/04/15 14:35:54;;;;;;;6.03;3.75;;;;;;;;;;6261709;28;20564;-77
2023/04/15 14:39:00;;;;;;;5.32;3.17;;;;;;;;;;6261394;28;20295;-76
2023/04/15 14:42:05;;;;;;;7.07;3.47;;;;;;;;;;6261382;28;20283;-76
2023/04/15 14:45:11;;;;;;;3.38;3.03;;;;;;;;;;6261082;28;20303;-76
2023/04/15 14:48:17;;;;;;;4.82;3.50;;;;;;;;;;6260927;28;20603;-78
2023/04/15 14:51:23;;;;;;;6.25;4.35;;;;;;;;;;6261469;28;20312;-77
2023/04/15 14:54:31;;;;;;;4.57;3.70;;;;;;;;;;6260822;28;20288;-75
2023/04/15 14:57:37;;;;;;;3.90;3.40;;;;;;;;;;6260111;28;20288;-76
2023/04/15 15:00:43;;;;;;;5.90;4.25;;;;;;;;;;6259869;28;20295;-75
2023/04/15 15:03:49;;;;;;;5.60;3.65;;;;;;;;;;6277690;28;20428;-77
2023/04/15 15:06:54;;;;;;;6.13;3.95;;;;;;;;;;6277470;28;20298;-77
2023/04/15 15:10:01;;;;;;;5.07;3.63;;;;;;;;;;6279832;28;20291;-77
2023/04/15 15:13:08;;;;;;;8.07;3.80;;;;;;;;;;6254429;28;20287;-76
2023/04/15 15:16:14;;;;;;;3.60;3.40;;;;;;;;;;6260805;28;20370;-76
2023/04/15 15:19:19;;;;;;;4.28;3.00;;;;;;;;;;6260413;28;20312;-75
2023/04/15 15:22:25;;;;;;;4.88;3.17;;;;;;;;;;6261033;28;20300;-77
2023/04/15 15:25:32;;;;;;;13.05;3.35;;;;;;;;;;6260297;28;20587;-76
2023/04/15 15:28:37;;;;;;;5.97;3.20;;;;;;;;;;6260330;28;20303;-78
2023/04/15 15:31:42;;;;;;;4.07;3.75;;;;;;;;;;6261082;28;20291;-78
2023/04/15 15:34:47;;;;;;;6.35;3.55;;;;;;;;;;6260031;28;20299;-76
2023/04/15 15:37:53;;;;;;;5.78;4.60;;;;;;;;;;6260364;28;20363;-76
2023/04/15 15:41:00;;;;;;;4.27;3.47;;;;;;;;;;6260464;28;20297;-77
2023/04/15 15:44:05;;;;;;;3.73;3.40;;;;;;;;;;6259981;28;20304;-77
2023/04/15 15:47:10;;;;;;;4.50;3.43;;;;;;;;;;6260695;28;20291;-77
2023/04/15 15:50:16;;;;;;;5.13;3.08;;;;;;;;;;6259784;28;20296;-76
2023/04/15 15:53:23;;;;;;;7.18;3.13;;;;;;;;;;6260102;28;20288;-76
2023/04/15 15:56:29;;;;;;;6.37;3.80;;;;;;;;;;6260268;28;20588;-77
2023/04/15 15:59:35;;;;;;;4.15;3.05;;;;;;;;;;6259195;28;20303;-76
2023/04/15 16:02:40;;;;;;;5.40;4.32;;;;;;;;;;6258738;28;20295;-76
2023/04/15 16:05:48;;;;;;;4.40;4.00;;;;;;;;;;6260201;28;20457;-76
2023/04/15 16:08:53;;;;;;;4.93;3.55;;;;;;;;;;6259840;28;20296;-76
2023/04/15 16:12:00;;;;;;;4.38;3.50;;;;;;;;;;6257469;28;20295;-77
2023/04/15 16:15:07;;;;;;;4.80;4.13;;;;;;;;;;6259443;28;20284;-76
2023/04/15 16:18:12;;;;;;;6.13;3.35;;;;;;;;;;6283854;28;20642;-77
2023/04/15 16:21:18;;;;;;;3.95;3.28;;;;;;;;;;6283992;28;20295;-77
2023/04/15 16:24:24;;;;;;;4.43;3.70;;;;;;;;;;6283532;28;20290;-76
2023/04/15 16:27:31;;;;;;;4.97;3.40;;;;;;;;;;6285313;28;20370;-76
2023/04/15 16:30:37;;;;;;;4.20;3.60;;;;;;;;;;6283682;28;20303;-75
2023/04/15 16:33:42;;;;;;;4.90;3.90;;;;;;;;;;6284088;28;20293;-76
2023/04/15 16:36:48;;;;;;;6.50;3.73;;;;;;;;;;6285079;28;20608;-75
2023/04/15 16:39:53;;;;;;;6.50;4.27;;;;;;;;;;6283948;28;20295;-76
2023/04/15 16:43:00;;;;;;;6.93;4.30;;;;;;;;;;6284308;28;20299;-77
2023/04/15 16:46:05;;;;;;;5.60;4.67;;;;;;;;;;6285038;28;20603;-77
2023/04/15 16:49:11;;;;;;;8.47;4.00;;;;;;;;;;6289467;28;20301;-77
2023/04/15 16:52:16;;;;;;;4.43;3.50;;;;;;;;;;6289526;28;20575;-76
2023/04/15 16:55:21;;;;;;;5.47;3.70;;;;;;;;;;6289191;28;20297;-75
2023/04/15 16:58:28;;;;;;;3.20;3.07;;;;;;;;;;6288512;28;20299;-76
2023/04/15 17:01:33;;;;;;;10.57;4.20;;;;;;;;;;6289293;28;20318;-77
2023/04/15 17:04:38;;;;;;;3.53;3.10;;;;;;;;;;6288124;28;20447;-77
2023/04/15 17:07:44;;;;;;;7.20;3.30;;;;;;;;;;6288316;28;20590;-75
2023/04/15 17:10:50;;;;;;;6.37;3.40;;;;;;;;;;6281185;28;20296;-76
2023/04/15 17:13:57;;;;;;;6.67;2.90;;;;;;;;;;6281085;28;20298;-76
2023/04/15 17:17:03;;;;;;;7.13;3.10;;;;;;;;;;6289043;28;20299;-76
2023/04/15 17:20:08;;;;;;;5.63;3.10;;;;;;;;;;6288220;28;20480;-77
2023/04/15 17:23:13;;;;;;;2.70;2.60;;;;;;;;;;6288586;28;20299;-76
2023/04/15 17:26:19;;;;;;;6.20;3.37;;;;;;;;;;6289102;28;20291;-77
2023/04/15 17:29:25;;;;;;;5.30;3.13;;;;;;;;;;6288251;28;20302;-76
2023/04/15 17:32:33;;;;;;;4.30;3.27;;;;;;;;;;6288609;28;20306;-76
2023/04/15 17:35:39;;;;;;;7.10;3.20;;;;;;;;;;6287331;28;20373;-76
2023/04/15 17:38:45;;;;;;;7.63;3.70;;;;;;;;;;6287874;28;20467;-75
2023/04/15 17:41:50;;;;;;;11.50;3.50;;;;;;;;;;6288497;28;20290;-75
2023/04/15 17:44:57;;;;;;;5.80;3.50;;;;;;;;;;6288013;28;20457;-76
2023/04/15 17:48:03;;;;;;;4.07;3.67;;;;;;;;;;6287193;28;20537;-76
2023/04/15 17:51:11;;;;;;;7.90;3.73;;;;;;;;;;6288086;28;20293;-77
2023/04/15 17:54:16;;;;;;;4.67;4.27;;;;;;;;;;6287581;28;20310;-75
2023/04/15 17:57:21;;;;;;;7.00;4.03;;;;;;;;;;6288245;28;20302;-75
2023/04/15 18:00:28;;;;;;;5.50;3.97;;;;;;;;;;6287106;28;20497;-76
2023/04/15 18:03:33;;;;;;;3.40;3.20;;;;;;;;;;6271944;28;20303;-77
2023/04/15 18:06:39;;;;;;;6.87;4.67;;;;;;;;;;6263158;28;20311;-77
2023/04/15 18:09:44;;;;;;;8.47;3.80;;;;;;;;;;6262576;28;20303;-76
2023/04/15 18:12:49;;;;;;;4.20;3.07;;;;;;;;;;6262125;28;20293;-76
2023/04/15 18:15:56;;;;;;;3.50;3.20;;;;;;;;;;6262790;28;20296;-77
2023/04/15 18:19:01;;;;;;;4.93;3.30;;;;;;;;;;6261286;28;20298;-77
2023/04/15 18:22:06;;;;;;;4.27;3.00;;;;;;;;;;6262790;28;20608;-77
2023/04/15 18:25:11;;;;;;;3.67;3.30;;;;;;;;;;6262429;28;20290;-76
2023/04/15 18:28:16;;;;;;;4.03;3.00;;;;;;;;;;6261556;28;20295;-76
2023/04/15 18:31:23;;;;;;;3.30;3.00;;;;;;;;;;6244956;28;20315;-76
2023/04/15 18:34:28;;;;;;;6.07;2.90;;;;;;;;;;6261514;28;20303;-77
2023/04/15 18:37:34;;;;;;;3.77;2.80;;;;;;;;;;6262033;28;20298;-78